Time;durP1;ratioP1;P1;durP2;ratioP2;P2;SDS_P1;SDS_P2;PMS_P1;PMS_P2;Temp;Humidity;BMP_temperature;BMP_pressure;BME280_temperature;BME280_humidity;BME280_pressure;Samples;Min_cycle;Max_cycle;Signal;HPM_P1;HPM_P2
2022/01/09 00:02:02;;;;;;;8.50;2.85;;;2.30;99.90;;;;;;5113183;28;20032;-87
2022/01/09 00:04:29;;;;;;;6.65;3.28;;;2.20;99.90;;;;;;5112893;28;20024;-86
2022/01/09 00:06:55;;;;;;;6.65;2.95;;;2.30;99.90;;;;;;5095264;28;20035;-86
2022/01/09 00:09:20;;;;;;;6.80;3.17;;;2.30;99.90;;;;;;5094593;28;20020;-86
2022/01/09 00:11:47;;;;;;;7.45;2.65;;;2.30;99.90;;;;;;5094467;28;20050;-86
2022/01/09 00:14:13;;;;;;;7.60;2.67;;;2.40;99.90;;;;;;5113361;28;20124;-86
2022/01/09 00:16:38;;;;;;;4.20;2.60;;;2.30;99.90;;;;;;5095366;28;20027;-86
2022/01/09 00:19:04;;;;;;;6.75;3.10;;;2.30;99.90;;;;;;5094589;28;20118;-87
2022/01/09 00:21:29;;;;;;;7.82;2.50;;;2.30;99.90;;;;;;5094462;28;20486;-87
2022/01/09 00:24:14;;;;;;;5.82;2.63;;;2.40;99.90;;;;;;5095045;28;20027;-86
2022/01/09 00:26:40;;;;;;;5.85;3.17;;;2.30;99.90;;;;;;5094813;28;20027;-86
2022/01/09 00:29:13;;;;;;;7.55;3.40;;;2.30;99.90;;;;;;5112965;28;20034;-87
2022/01/09 00:31:39;;;;;;;4.45;2.45;;;2.40;99.90;;;;;;5112997;28;20027;-86
2022/01/09 00:34:05;;;;;;;7.28;3.08;;;2.30;99.90;;;;;;5112224;28;20092;-86
2022/01/09 00:36:39;;;;;;;9.43;3.20;;;2.30;99.90;;;;;;5094855;28;20023;-86
2022/01/09 00:39:04;;;;;;;8.10;3.65;;;2.30;99.90;;;;;;5113054;28;20391;-87
2022/01/09 00:41:30;;;;;;;8.82;3.33;;;2.30;99.90;;;;;;5094661;28;20080;-86
2022/01/09 00:43:56;;;;;;;8.20;3.15;;;2.20;99.90;;;;;;5112701;28;20043;-87
2022/01/09 00:46:22;;;;;;;6.88;3.40;;;2.20;99.90;;;;;;5113065;28;20024;-86
2022/01/09 00:48:58;;;;;;;4.68;2.88;;;2.30;99.90;;;;;;5112534;28;20030;-87
2022/01/09 00:51:24;;;;;;;9.55;3.65;;;2.30;99.90;;;;;;5094544;28;20055;-87
2022/01/09 00:53:52;;;;;;;4.93;3.00;;;2.20;99.90;;;;;;5112910;28;20062;-87
2022/01/09 00:56:31;;;;;;;6.53;3.03;;;2.20;99.90;;;;;;5112617;28;20052;-86
2022/01/09 00:58:56;;;;;;;3.65;2.72;;;2.30;99.90;;;;;;5116969;28;20038;-86
2022/01/09 01:01:22;;;;;;;5.32;2.65;;;2.20;99.90;;;;;;5116793;28;20459;-87
2022/01/09 01:04:06;;;;;;;6.50;3.25;;;2.20;99.90;;;;;;5116752;28;20102;-88
2022/01/09 01:06:32;;;;;;;4.43;2.95;;;2.20;99.90;;;;;;5117066;28;20020;-88
2022/01/09 01:08:57;;;;;;;7.88;3.47;;;2.10;99.90;;;;;;5116867;28;20027;-87
2022/01/09 01:11:23;;;;;;;5.53;2.88;;;2.10;99.90;;;;;;5115874;28;20500;-87
2022/01/09 01:13:50;;;;;;;9.50;3.22;;;2.10;99.90;;;;;;5116745;28;20035;-87
2022/01/09 01:16:15;;;;;;;8.82;4.82;;;2.10;99.90;;;;;;5116875;28;20028;-87
2022/01/09 01:18:44;;;;;;;6.78;3.17;;;2.10;99.90;;;;;;5098141;28;20031;-86
2022/01/09 01:21:12;;;;;;;6.22;3.20;;;2.10;99.90;;;;;;5116706;28;20027;-87
2022/01/09 01:23:38;;;;;;;9.10;3.42;;;2.10;99.90;;;;;;5116375;28;20024;-88
2022/01/09 01:26:03;;;;;;;6.65;3.72;;;2.10;99.90;;;;;;5116365;28;20498;-87
2022/01/09 01:28:32;;;;;;;7.32;3.03;;;2.10;99.90;;;;;;5116116;28;20024;-87
2022/01/09 01:30:58;;;;;;;6.82;3.15;;;2.10;99.90;;;;;;5075947;28;20490;-86
2022/01/09 01:33:23;;;;;;;8.40;3.45;;;2.10;99.90;;;;;;5106346;28;20059;-86
2022/01/09 01:35:51;;;;;;;7.75;3.28;;;2.10;99.90;;;;;;5116370;28;20032;-86
2022/01/09 01:38:17;;;;;;;4.32;2.90;;;2.10;99.90;;;;;;5097773;28;20172;-86
2022/01/09 01:40:43;;;;;;;4.63;2.88;;;2.10;99.90;;;;;;5098311;28;20073;-86
2022/01/09 01:43:10;;;;;;;5.80;2.97;;;2.20;99.90;;;;;;5116159;28;20482;-86
2022/01/09 01:45:35;;;;;;;4.05;2.88;;;2.20;99.90;;;;;;5116373;28;20019;-86
2022/01/09 01:48:06;;;;;;;5.05;2.80;;;2.20;99.90;;;;;;5097578;28;20035;-86
2022/01/09 01:50:38;;;;;;;7.45;2.97;;;2.20;99.90;;;;;;5116177;28;20023;-87
2022/01/09 01:53:10;;;;;;;4.65;2.67;;;2.30;99.90;;;;;;5115430;28;20024;-87
2022/01/09 01:55:38;;;;;;;3.58;2.60;;;2.30;99.90;;;;;;5115926;28;20462;-86
2022/01/09 01:58:13;;;;;;;4.53;2.38;;;2.40;99.90;;;;;;5116189;28;20073;-87
2022/01/09 02:00:41;;;;;;;6.07;2.95;;;2.40;99.90;;;;;;5097297;28;20024;-87
2022/01/09 02:03:09;;;;;;;5.43;2.00;;;2.40;99.90;;;;;;5115412;28;20364;-87
2022/01/09 02:05:37;;;;;;;4.10;2.45;;;2.40;99.90;;;;;;5116047;28;20459;-87
2022/01/09 02:08:04;;;;;;;2.90;2.20;;;2.50;99.90;;;;;;5097187;28;20077;-88
2022/01/09 02:10:30;;;;;;;4.93;2.30;;;2.40;99.90;;;;;;5115383;28;20043;-87
2022/01/09 02:12:57;;;;;;;4.80;3.08;;;2.50;99.90;;;;;;5115376;28;20482;-87
2022/01/09 02:15:26;;;;;;;5.15;2.38;;;2.40;99.90;;;;;;5104732;28;20364;-87
2022/01/09 02:17:51;;;;;;;2.97;2.10;;;2.40;99.90;;;;;;5095119;28;20020;-87
2022/01/09 02:20:17;;;;;;;2.10;1.90;;;2.50;99.90;;;;;;5097127;28;20019;-87
2022/01/09 02:22:46;;;;;;;3.50;2.63;;;2.40;99.90;;;;;;5115653;28;20027;-86
2022/01/09 02:25:13;;;;;;;6.75;2.55;;;2.50;99.90;;;;;;5115244;28;20073;-87
2022/01/09 02:27:38;;;;;;;4.82;2.58;;;2.40;99.90;;;;;;5097294;28;20476;-87
2022/01/09 02:30:20;;;;;;;3.97;2.38;;;2.50;99.90;;;;;;5114594;28;20055;-88
2022/01/09 02:32:46;;;;;;;6.53;2.60;;;2.50;99.90;;;;;;5093411;28;20387;-86
2022/01/09 02:35:25;;;;;;;2.55;2.17;;;2.40;99.90;;;;;;5113602;28;20028;-86
2022/01/09 02:37:50;;;;;;;3.20;2.55;;;2.50;99.90;;;;;;5093614;28;20024;-86
2022/01/09 02:40:16;;;;;;;8.02;3.97;;;2.40;99.90;;;;;;5094488;28;20031;-86
2022/01/09 02:42:41;;;;;;;3.38;2.47;;;2.40;99.90;;;;;;5094526;28;20028;-86
2022/01/09 02:45:09;;;;;;;2.40;2.20;;;2.40;99.90;;;;;;5076841;28;20023;-87
2022/01/09 02:47:37;;;;;;;4.65;2.95;;;2.40;99.90;;;;;;5075959;28;20073;-87
2022/01/09 02:50:27;;;;;;;3.55;2.83;;;2.40;99.90;;;;;;5094601;28;20051;-86
2022/01/09 02:52:59;;;;;;;5.03;2.40;;;2.40;99.90;;;;;;5094364;28;20476;-87
2022/01/09 02:55:27;;;;;;;4.35;3.22;;;2.40;99.90;;;;;;5094306;28;20487;-86
2022/01/09 02:57:58;;;;;;;5.30;2.85;;;2.40;99.90;;;;;;5094410;28;20491;-87
2022/01/09 03:00:31;;;;;;;4.30;2.95;;;2.40;99.90;;;;;;5094259;28;20032;-86
2022/01/09 03:02:57;;;;;;;4.32;2.85;;;2.40;99.90;;;;;;5093663;28;20034;-86
2022/01/09 03:05:24;;;;;;;10.25;3.40;;;2.40;99.90;;;;;;5076179;28;20020;-86
2022/01/09 03:07:50;;;;;;;3.80;3.08;;;2.30;99.90;;;;;;5076065;28;20032;-86
2022/01/09 03:10:18;;;;;;;4.47;2.80;;;2.30;99.90;;;;;;5075924;28;20024;-87
2022/01/09 03:12:45;;;;;;;5.63;3.13;;;2.30;99.90;;;;;;5094263;28;20098;-87
2022/01/09 03:15:13;;;;;;;4.63;3.10;;;2.30;99.90;;;;;;5075694;28;20038;-86
2022/01/09 03:17:39;;;;;;;5.65;3.03;;;2.30;99.90;;;;;;5093697;28;20035;-86
2022/01/09 03:20:10;;;;;;;8.95;4.13;;;2.30;99.90;;;;;;5093439;28;20021;-86
2022/01/09 03:22:35;;;;;;;4.88;2.92;;;2.30;99.90;;;;;;5075701;28;20028;-86
2022/01/09 03:25:01;;;;;;;8.52;2.85;;;2.30;99.90;;;;;;5093908;28;20416;-86
2022/01/09 03:27:27;;;;;;;4.07;3.53;;;2.30;99.90;;;;;;5093898;28;20023;-87
2022/01/09 03:29:53;;;;;;;5.68;2.95;;;2.30;99.90;;;;;;5093424;28;20028;-87
2022/01/09 03:32:18;;;;;;;4.22;2.88;;;2.30;99.90;;;;;;5093412;28;20020;-86
2022/01/09 03:34:45;;;;;;;3.13;2.60;;;2.30;99.90;;;;;;5100920;28;20050;-86
2022/01/09 03:37:11;;;;;;;3.17;2.42;;;2.30;99.90;;;;;;5100874;28;20488;-86
2022/01/09 03:39:36;;;;;;;4.18;2.70;;;2.40;99.90;;;;;;5092280;28;20162;-86
2022/01/09 03:42:02;;;;;;;6.93;2.70;;;2.40;99.90;;;;;;5093218;28;20091;-86
2022/01/09 03:44:28;;;;;;;3.10;2.67;;;2.40;99.90;;;;;;5093472;28;20028;-87
2022/01/09 03:46:55;;;;;;;4.45;2.90;;;2.40;99.90;;;;;;5093285;28;20023;-87
2022/01/09 03:49:21;;;;;;;4.47;3.33;;;2.40;99.90;;;;;;5093086;28;20016;-87
2022/01/09 03:51:50;;;;;;;5.20;2.70;;;2.50;99.90;;;;;;5093248;28;20112;-86
2022/01/09 03:54:19;;;;;;;9.27;3.30;;;2.40;99.90;;;;;;5093258;28;20034;-87
2022/01/09 03:56:45;;;;;;;4.00;3.05;;;2.40;99.90;;;;;;5093255;28;20418;-86
2022/01/09 03:59:11;;;;;;;7.28;3.00;;;2.50;99.90;;;;;;5093129;28;20028;-86
2022/01/09 04:01:37;;;;;;;4.47;2.72;;;2.50;99.90;;;;;;5092812;28;20361;-85
2022/01/09 04:04:03;;;;;;;7.15;3.20;;;2.50;99.90;;;;;;5092943;28;20078;-86
2022/01/09 04:06:29;;;;;;;4.60;2.70;;;2.50;99.90;;;;;;5093032;28;20024;-86
2022/01/09 04:08:57;;;;;;;5.07;2.80;;;2.50;99.90;;;;;;5093014;28;20386;-86
2022/01/09 04:11:28;;;;;;;5.43;2.85;;;2.50;99.90;;;;;;5103733;28;20057;-86
2022/01/09 04:13:54;;;;;;;3.58;2.92;;;2.50;99.90;;;;;;5113261;28;20513;-86
2022/01/09 04:16:20;;;;;;;4.82;2.72;;;2.50;99.90;;;;;;5113179;28;20028;-86
2022/01/09 04:18:46;;;;;;;6.55;3.67;;;2.50;99.90;;;;;;5112479;28;20062;-86
2022/01/09 04:21:12;;;;;;;4.57;3.35;;;2.50;99.90;;;;;;5112702;28;20055;-86
2022/01/09 04:23:37;;;;;;;5.82;3.00;;;2.50;99.90;;;;;;5113086;28;20016;-87
2022/01/09 04:26:03;;;;;;;3.53;2.97;;;2.50;99.90;;;;;;5112882;28;20027;-86
2022/01/09 04:28:29;;;;;;;4.07;2.80;;;2.50;99.90;;;;;;5112628;28;20027;-86
2022/01/09 04:30:56;;;;;;;4.10;3.13;;;2.50;99.90;;;;;;5078966;28;20073;-86
2022/01/09 04:33:22;;;;;;;5.72;3.20;;;2.50;99.90;;;;;;5103868;28;20028;-85
2022/01/09 04:35:52;;;;;;;3.45;2.67;;;2.50;99.90;;;;;;5084905;28;20024;-85
2022/01/09 04:38:17;;;;;;;4.50;3.30;;;2.50;99.90;;;;;;5087935;28;20093;-85
2022/01/09 04:40:45;;;;;;;4.55;3.28;;;2.50;99.90;;;;;;5092397;28;20020;-85
2022/01/09 04:43:12;;;;;;;7.22;3.30;;;2.50;99.90;;;;;;5104629;28;20030;-85
2022/01/09 04:45:38;;;;;;;4.68;3.30;;;2.60;99.90;;;;;;5108489;28;20020;-85
2022/01/09 04:48:08;;;;;;;6.90;3.75;;;2.60;99.90;;;;;;5095521;28;20031;-85
2022/01/09 04:50:37;;;;;;;7.30;3.78;;;2.50;99.90;;;;;;5074786;28;20081;-84
2022/01/09 04:53:06;;;;;;;7.78;3.30;;;2.50;99.90;;;;;;5092757;28;20495;-85
2022/01/09 04:55:33;;;;;;;5.10;3.25;;;2.60;99.90;;;;;;5074491;28;20035;-85
2022/01/09 04:58:10;;;;;;;3.83;3.42;;;2.50;99.90;;;;;;5092593;28;20027;-85
2022/01/09 05:00:36;;;;;;;5.53;3.25;;;2.50;99.90;;;;;;5074320;28;20511;-85
2022/01/09 05:03:02;;;;;;;4.03;3.45;;;2.50;99.90;;;;;;5092366;28;20020;-85
2022/01/09 05:05:29;;;;;;;4.70;3.40;;;2.50;99.90;;;;;;5098734;28;20012;-85
2022/01/09 05:07:55;;;;;;;5.00;3.20;;;2.60;99.90;;;;;;5112746;28;20020;-85
2022/01/09 05:10:21;;;;;;;3.78;3.35;;;2.60;99.90;;;;;;5092450;28;20097;-86
2022/01/09 05:12:46;;;;;;;4.90;3.60;;;2.60;99.90;;;;;;5091407;28;20036;-85
2022/01/09 05:15:14;;;;;;;6.28;3.47;;;2.60;99.90;;;;;;5107204;28;20028;-86
2022/01/09 05:17:39;;;;;;;3.95;3.30;;;2.60;99.90;;;;;;5092148;28;20024;-85
2022/01/09 05:20:07;;;;;;;4.75;3.80;;;2.60;99.90;;;;;;5092416;28;20494;-86
2022/01/09 05:22:32;;;;;;;6.22;3.25;;;2.60;99.90;;;;;;5090544;28;20032;-86
2022/01/09 05:25:01;;;;;;;4.90;3.55;;;2.60;99.90;;;;;;5092279;28;20482;-85
2022/01/09 05:27:27;;;;;;;7.35;3.53;;;2.50;99.90;;;;;;5092345;28;20031;-86
2022/01/09 05:29:54;;;;;;;4.95;3.28;;;2.60;99.90;;;;;;5091296;28;20024;-86
2022/01/09 05:32:19;;;;;;;5.57;3.92;;;2.60;99.90;;;;;;5091806;28;20559;-86
2022/01/09 05:34:47;;;;;;;4.85;3.55;;;2.60;99.90;;;;;;5092528;28;20063;-86
2022/01/09 05:37:13;;;;;;;6.00;3.13;;;2.60;99.90;;;;;;5092333;28;20060;-86
2022/01/09 05:39:39;;;;;;;4.05;3.28;;;2.70;99.90;;;;;;5092286;28;20036;-86
2022/01/09 05:42:08;;;;;;;8.88;4.60;;;2.60;99.90;;;;;;5093847;28;20036;-86
2022/01/09 05:44:43;;;;;;;4.75;3.60;;;2.60;99.90;;;;;;5116233;28;20114;-86
2022/01/09 05:47:08;;;;;;;4.27;3.50;;;2.60;99.90;;;;;;5115668;28;20031;-86
2022/01/09 05:49:34;;;;;;;4.85;3.55;;;2.50;99.90;;;;;;5096277;28;20793;-86
2022/01/09 05:52:07;;;;;;;5.55;2.80;;;2.60;99.90;;;;;;5115805;28;20028;-85
2022/01/09 05:54:33;;;;;;;4.53;3.78;;;2.60;99.90;;;;;;5116288;28;20028;-86
2022/01/09 05:57:02;;;;;;;3.22;2.85;;;2.60;99.90;;;;;;5115470;28;20054;-86
2022/01/09 05:59:28;;;;;;;4.03;3.13;;;2.50;99.90;;;;;;5095669;28;20032;-86
2022/01/09 06:01:56;;;;;;;3.97;3.35;;;2.60;99.90;;;;;;5102239;28;20206;-86
2022/01/09 06:04:21;;;;;;;3.35;3.05;;;2.60;99.90;;;;;;5097918;28;20487;-86
2022/01/09 06:07:06;;;;;;;4.60;3.30;;;2.60;99.90;;;;;;5115865;28;20020;-87
2022/01/09 06:09:33;;;;;;;2.90;2.70;;;2.60;99.90;;;;;;5116096;28;20369;-86
2022/01/09 06:12:09;;;;;;;3.45;2.83;;;2.60;99.90;;;;;;5115465;28;20055;-87
2022/01/09 06:14:35;;;;;;;3.40;3.10;;;2.60;99.90;;;;;;5114245;28;20387;-86
2022/01/09 06:17:01;;;;;;;3.50;3.20;;;2.50;99.90;;;;;;5096998;28;20030;-86
2022/01/09 06:19:26;;;;;;;5.20;3.05;;;2.50;99.90;;;;;;5097565;28;20080;-86
2022/01/09 06:21:52;;;;;;;3.83;3.25;;;2.50;99.90;;;;;;5097353;28;20112;-87
2022/01/09 06:24:19;;;;;;;3.58;2.70;;;2.60;99.90;;;;;;5096736;28;20150;-86
2022/01/09 06:26:44;;;;;;;3.97;3.58;;;2.60;99.90;;;;;;5076637;28;20041;-87
2022/01/09 06:29:10;;;;;;;3.40;2.90;;;2.60;99.90;;;;;;5094825;28;20032;-88
2022/01/09 06:31:36;;;;;;;3.92;3.20;;;2.60;99.90;;;;;;5101910;28;20043;-86
2022/01/09 06:34:01;;;;;;;3.88;3.13;;;2.60;99.90;;;;;;5114864;28;20032;-86
2022/01/09 06:36:27;;;;;;;3.35;2.90;;;2.60;99.90;;;;;;5113886;28;20600;-86
2022/01/09 06:38:55;;;;;;;3.08;2.78;;;2.60;99.90;;;;;;5109853;28;20032;-87
2022/01/09 06:41:21;;;;;;;4.93;3.05;;;2.60;99.90;;;;;;5113822;28;20479;-86
2022/01/09 06:43:47;;;;;;;3.80;2.80;;;2.60;99.90;;;;;;5101013;28;20106;-86
2022/01/09 06:46:12;;;;;;;2.88;2.67;;;2.60;99.90;;;;;;5115151;28;20055;-87
2022/01/09 06:48:38;;;;;;;3.03;2.72;;;2.60;99.90;;;;;;5096636;28;20160;-86
2022/01/09 06:51:10;;;;;;;2.72;2.53;;;2.60;99.90;;;;;;5076172;28;20067;-86
2022/01/09 06:53:35;;;;;;;2.95;2.70;;;2.60;99.90;;;;;;5094517;28;20818;-86
2022/01/09 06:56:01;;;;;;;2.78;2.58;;;2.60;99.90;;;;;;5085705;28;20028;-86
2022/01/09 06:58:27;;;;;;;2.88;2.58;;;2.70;99.90;;;;;;5074655;28;20032;-85
2022/01/09 07:00:52;;;;;;;2.65;2.45;;;2.60;99.90;;;;;;5074760;28;20071;-86
2022/01/09 07:03:18;;;;;;;2.42;2.22;;;2.70;99.90;;;;;;5093191;28;20024;-87
2022/01/09 07:05:44;;;;;;;3.78;2.30;;;2.70;99.90;;;;;;5083039;28;20062;-86
2022/01/09 07:08:10;;;;;;;3.58;2.60;;;2.70;99.90;;;;;;5100672;28;20464;-86
2022/01/09 07:10:36;;;;;;;2.47;2.28;;;2.70;99.90;;;;;;5099147;28;20050;-87
2022/01/09 07:13:02;;;;;;;4.80;2.40;;;2.70;99.90;;;;;;5101964;28;20497;-86
2022/01/09 07:15:27;;;;;;;2.40;2.20;;;2.70;99.90;;;;;;5079675;28;20051;-86
2022/01/09 07:17:53;;;;;;;2.40;2.20;;;2.80;99.90;;;;;;5102792;28;20036;-86
2022/01/09 07:20:19;;;;;;;2.22;2.05;;;2.70;99.90;;;;;;5077400;28;20028;-85
2022/01/09 07:22:44;;;;;;;2.83;2.08;;;2.70;99.90;;;;;;5103608;28;20044;-87
2022/01/09 07:25:10;;;;;;;2.25;2.15;;;2.70;99.90;;;;;;5093731;28;20016;-86
2022/01/09 07:27:36;;;;;;;2.33;1.83;;;2.70;99.90;;;;;;5113438;28;20360;-86
2022/01/09 07:30:02;;;;;;;1.85;1.75;;;2.70;99.90;;;;;;5114067;28;20043;-86
2022/01/09 07:32:28;;;;;;;1.88;1.75;;;2.70;99.90;;;;;;5094253;28;20060;-86
2022/01/09 07:34:57;;;;;;;2.30;1.77;;;2.70;99.90;;;;;;5086079;28;20444;-86
2022/01/09 07:37:22;;;;;;;2.15;1.77;;;2.70;99.90;;;;;;5073091;28;20035;-86
2022/01/09 07:39:50;;;;;;;2.22;1.73;;;2.80;99.90;;;;;;5091184;28;20028;-86
2022/01/09 07:42:15;;;;;;;1.50;1.40;;;2.80;99.90;;;;;;5091377;28;20056;-86
2022/01/09 07:44:41;;;;;;;1.73;1.63;;;2.80;99.90;;;;;;5092174;28;20054;-86
2022/01/09 07:47:07;;;;;;;1.55;1.45;;;2.90;99.90;;;;;;5083889;28;20042;-86
2022/01/09 07:49:32;;;;;;;1.60;1.50;;;2.90;99.90;;;;;;5090036;28;20035;-86
2022/01/09 07:51:58;;;;;;;1.67;1.40;;;3.00;99.90;;;;;;5091797;28;20081;-87
2022/01/09 07:54:23;;;;;;;1.52;1.42;;;3.00;99.90;;;;;;5074145;28;20033;-86
2022/01/09 07:56:49;;;;;;;1.40;1.30;;;3.00;99.90;;;;;;5072341;28;20035;-86
2022/01/09 07:59:15;;;;;;;1.58;1.48;;;3.10;99.90;;;;;;5089673;28;20059;-86
2022/01/09 08:01:41;;;;;;;3.75;1.25;;;3.10;99.90;;;;;;5093724;28;20031;-85
2022/01/09 08:04:06;;;;;;;1.20;1.20;;;3.10;99.90;;;;;;5085384;28;20020;-86
2022/01/09 08:06:32;;;;;;;1.40;1.30;;;3.10;99.90;;;;;;5073428;28;20612;-86
2022/01/09 08:09:05;;;;;;;1.20;1.20;;;3.10;99.90;;;;;;5073975;28;20118;-88
2022/01/09 08:11:33;;;;;;;1.20;1.20;;;3.20;99.90;;;;;;5092792;28;20104;-86
2022/01/09 08:13:58;;;;;;;1.38;1.27;;;3.20;99.90;;;;;;5092736;28;20496;-86
2022/01/09 08:16:24;;;;;;;0.95;0.95;;;3.20;99.90;;;;;;5073818;28;20040;-86
2022/01/09 08:18:51;;;;;;;1.40;1.30;;;3.20;99.90;;;;;;5091801;28;20034;-86
2022/01/09 08:21:19;;;;;;;1.40;1.30;;;3.20;99.90;;;;;;5091719;28;20540;-86
2022/01/09 08:23:47;;;;;;;1.10;1.10;;;3.20;99.90;;;;;;5089560;28;20052;-86
2022/01/09 08:26:13;;;;;;;1.00;1.00;;;3.20;99.90;;;;;;5086803;28;20024;-86
2022/01/09 08:28:42;;;;;;;0.85;0.85;;;3.20;99.90;;;;;;5079321;28;20488;-86
2022/01/09 08:31:08;;;;;;;3.25;1.60;;;3.30;99.90;;;;;;5098746;28;20398;-86
2022/01/09 08:33:34;;;;;;;1.58;1.48;;;3.30;99.90;;;;;;5097901;28;20038;-86
2022/01/09 08:35:59;;;;;;;1.70;1.60;;;3.30;99.90;;;;;;5073880;28;20391;-86
2022/01/09 08:38:25;;;;;;;3.88;1.42;;;3.30;99.90;;;;;;5079003;28;20084;-86
2022/01/09 08:40:50;;;;;;;1.48;1.38;;;3.30;99.90;;;;;;5096403;28;20435;-86
2022/01/09 08:43:16;;;;;;;3.75;1.20;;;3.30;99.90;;;;;;5076542;28;20024;-86
2022/01/09 08:45:42;;;;;;;1.20;1.20;;;3.30;99.90;;;;;;5072348;28;20141;-86
2022/01/09 08:48:08;;;;;;;1.08;1.08;;;3.30;99.90;;;;;;5076850;28;20574;-87
2022/01/09 08:50:33;;;;;;;0.98;0.98;;;3.40;99.90;;;;;;5101815;28;20028;-86
2022/01/09 08:52:59;;;;;;;1.20;1.10;;;3.50;99.90;;;;;;5091298;28;20036;-87
2022/01/09 08:55:25;;;;;;;0.95;0.95;;;3.50;99.90;;;;;;5092260;28;20032;-86
2022/01/09 08:57:50;;;;;;;0.80;0.80;;;3.50;99.90;;;;;;5089161;28;20039;-86
2022/01/09 09:00:18;;;;;;;0.90;0.90;;;3.60;99.90;;;;;;5092167;28;20436;-86
2022/01/09 09:02:44;;;;;;;1.67;1.33;;;3.60;99.90;;;;;;5090048;28;20547;-86
2022/01/09 09:05:10;;;;;;;1.40;1.30;;;3.50;99.90;;;;;;5080064;28;20051;-86
2022/01/09 09:07:36;;;;;;;1.05;1.05;;;3.50;99.90;;;;;;5064152;28;20028;-86
2022/01/09 09:10:04;;;;;;;1.30;1.20;;;3.60;99.90;;;;;;5075253;28;20079;-86
2022/01/09 09:12:31;;;;;;;1.73;1.60;;;3.50;99.90;;;;;;5095639;28;20069;-86
2022/01/09 09:14:58;;;;;;;8.07;5.35;;;3.40;99.90;;;;;;5084825;28;20028;-86
2022/01/09 09:17:24;;;;;;;4.57;2.72;;;3.50;99.90;;;;;;5092923;28;20081;-85
2022/01/09 09:19:49;;;;;;;1.63;1.52;;;3.60;99.90;;;;;;5077993;28;20024;-86
2022/01/09 09:22:17;;;;;;;5.70;3.20;;;3.60;99.90;;;;;;5076173;28;20145;-87
2022/01/09 09:24:43;;;;;;;1.73;1.58;;;3.60;99.90;;;;;;5110674;28;20369;-87
2022/01/09 09:27:08;;;;;;;2.08;1.98;;;3.60;99.90;;;;;;5091172;28;20088;-86
2022/01/09 09:29:34;;;;;;;2.53;1.70;;;3.60;99.90;;;;;;5095034;28;20032;-86
2022/01/09 09:32:00;;;;;;;2.40;1.90;;;3.70;99.90;;;;;;5094343;28;20043;-87
2022/01/09 09:34:25;;;;;;;1.10;1.10;;;3.60;99.90;;;;;;5095164;28;20103;-87
2022/01/09 09:36:52;;;;;;;1.30;1.20;;;3.70;99.90;;;;;;5095286;28;20445;-86
2022/01/09 09:39:18;;;;;;;0.90;0.90;;;3.70;99.90;;;;;;5095345;28;20158;-87
2022/01/09 09:41:44;;;;;;;1.20;1.10;;;3.70;99.90;;;;;;5095221;28;20118;-86
2022/01/09 09:44:10;;;;;;;1.20;1.20;;;3.70;99.90;;;;;;5077264;28;20035;-87
2022/01/09 09:46:37;;;;;;;1.17;1.17;;;3.70;99.90;;;;;;5094825;28;20036;-87
2022/01/09 09:49:03;;;;;;;0.85;0.85;;;3.70;99.90;;;;;;5094993;28;20032;-86
2022/01/09 09:51:30;;;;;;;1.13;1.02;;;3.80;99.90;;;;;;5095177;28;20028;-86
2022/01/09 09:54:02;;;;;;;0.98;0.98;;;3.80;99.90;;;;;;5085292;28;20024;-86
2022/01/09 09:56:27;;;;;;;1.17;1.13;;;3.90;99.90;;;;;;5088826;28;20081;-87
2022/01/09 09:58:58;;;;;;;1.30;1.00;;;3.90;99.90;;;;;;5067751;28;20043;-87
2022/01/09 10:01:30;;;;;;;1.08;1.00;;;3.90;99.90;;;;;;5077399;28;20044;-87
2022/01/09 10:04:08;;;;;;;0.90;0.90;;;3.90;99.90;;;;;;5072496;28;20483;-86
2022/01/09 10:06:37;;;;;;;0.85;0.85;;;3.90;99.90;;;;;;5095068;28;20135;-86
2022/01/09 10:09:14;;;;;;;1.00;1.00;;;3.90;99.90;;;;;;5094670;28;20476;-87
2022/01/09 10:11:49;;;;;;;0.75;0.75;;;3.90;99.90;;;;;;5094646;28;20044;-85
2022/01/09 10:14:19;;;;;;;0.90;0.90;;;3.90;99.90;;;;;;5094735;28;20040;-86
2022/01/09 10:17:21;;;;;;;1.02;0.90;;;3.90;99.90;;;;;;5093275;28;20369;-88
2022/01/09 10:19:54;;;;;;;0.95;0.95;;;4.00;99.90;;;;;;5088807;28;20412;-86
2022/01/09 10:22:26;;;;;;;1.10;1.10;;;3.90;99.90;;;;;;5094215;28;20036;-86
2022/01/09 10:24:52;;;;;;;1.15;1.10;;;3.90;99.90;;;;;;5095311;28;20035;-87
2022/01/09 10:27:38;;;;;;;0.73;0.73;;;3.90;99.90;;;;;;5075589;28;20043;-86
2022/01/09 10:30:05;;;;;;;0.80;0.80;;;3.90;99.90;;;;;;5090931;28;20244;-87
2022/01/09 10:32:32;;;;;;;0.90;0.90;;;3.90;99.90;;;;;;5094363;28;20025;-87
2022/01/09 10:35:07;;;;;;;0.90;0.90;;;4.00;99.90;;;;;;5076900;28;20650;-87
2022/01/09 10:37:35;;;;;;;;;;;4.00;99.90;;;;;;5076498;28;20028;-86
2022/01/09 10:40:01;;;;;;;0.90;0.90;;;4.00;99.90;;;;;;5094981;28;19904;-86
2022/01/09 10:42:28;;;;;;;0.73;0.73;;;4.00;99.90;;;;;;5094151;28;20066;-86
2022/01/09 10:44:54;;;;;;;0.90;0.90;;;4.00;99.90;;;;;;5094861;28;20056;-86
2022/01/09 10:47:20;;;;;;;0.90;0.90;;;4.00;99.90;;;;;;5093695;28;20115;-86
2022/01/09 10:49:51;;;;;;;0.70;0.70;;;4.00;99.90;;;;;;5076694;28;20162;-87
2022/01/09 10:52:21;;;;;;;1.10;1.00;;;4.00;99.90;;;;;;5094214;28;20024;-87
2022/01/09 10:54:55;;;;;;;0.70;0.70;;;3.90;99.90;;;;;;5099065;28;20028;-87
2022/01/09 10:57:26;;;;;;;0.77;0.77;;;4.00;99.90;;;;;;5106337;27;20486;-87
2022/01/09 10:59:52;;;;;;;1.00;1.00;;;3.80;99.90;;;;;;5082932;28;20149;-87
2022/01/09 11:02:19;;;;;;;0.95;0.95;;;3.80;99.90;;;;;;5093445;28;20487;-87
2022/01/09 11:04:46;;;;;;;1.10;1.00;;;3.90;99.90;;;;;;5094465;28;20024;-85
2022/01/09 11:07:25;;;;;;;0.90;0.90;;;3.80;99.90;;;;;;5094339;28;20024;-87
2022/01/09 11:09:52;;;;;;;0.80;0.80;;;3.80;99.90;;;;;;5094339;28;20056;-85
2022/01/09 11:12:20;;;;;;;1.00;1.00;;;3.80;99.90;;;;;;5093845;28;20051;-86
2022/01/09 11:14:51;;;;;;;1.10;1.00;;;3.80;99.90;;;;;;5094209;28;20027;-86
2022/01/09 11:17:28;;;;;;;0.80;0.80;;;3.70;99.90;;;;;;5094041;28;20024;-86
2022/01/09 11:19:54;;;;;;;0.90;0.90;;;3.70;99.90;;;;;;5090724;28;20116;-85
2022/01/09 11:22:21;;;;;;;0.82;0.82;;;3.70;99.90;;;;;;5082398;28;20066;-86
2022/01/09 11:25:07;;;;;;;3.70;1.20;;;3.70;99.90;;;;;;5093966;28;20487;-86
2022/01/09 11:27:52;;;;;;;;;;;3.70;99.90;;;;;;5094365;28;20027;-85
2022/01/09 11:30:57;;;;;;;0.90;0.90;;;3.70;99.90;;;;;;5093847;28;19908;-85
2022/01/09 11:33:46;;;;;;;0.90;0.90;;;3.70;99.90;;;;;;5093502;28;20032;-86
2022/01/09 11:36:35;;;;;;;0.75;0.75;;;3.60;99.90;;;;;;5091809;28;20484;-85
2022/01/09 11:39:26;;;;;;;0.85;0.85;;;3.60;99.90;;;;;;5102713;28;20087;-85
2022/01/09 11:42:13;;;;;;;0.88;0.88;;;3.60;99.90;;;;;;5076070;28;20020;-85
2022/01/09 11:44:56;;;;;;;0.80;0.80;;;3.60;99.90;;;;;;5093881;28;20028;-86
2022/01/09 11:47:24;;;;;;;1.25;1.15;;;3.60;99.90;;;;;;5076685;28;20039;-86
2022/01/09 11:49:53;;;;;;;2.60;1.40;;;3.60;99.90;;;;;;5055457;28;20025;-86
2022/01/09 11:52:24;;;;;;;1.23;1.13;;;3.70;99.90;;;;;;5077661;28;20035;-86
2022/01/09 11:54:59;;;;;;;1.25;1.15;;;3.70;99.90;;;;;;5079104;28;20060;-86
2022/01/09 11:57:46;;;;;;;1.90;1.67;;;3.70;99.90;;;;;;5087289;28;20032;-86
2022/01/09 12:00:36;;;;;;;1.35;1.25;;;3.70;99.90;;;;;;5084986;28;20021;-86
2022/01/09 12:03:27;;;;;;;2.55;1.50;;;3.70;99.90;;;;;;5069341;28;20031;-87
2022/01/09 12:06:13;;;;;;;0.95;0.93;;;3.70;99.90;;;;;;5088042;28;20043;-86
2022/01/09 12:09:04;;;;;;;;;;;3.70;99.90;;;;;;5082898;28;20028;-86
2022/01/09 12:12:04;;;;;;;1.00;1.00;;;3.80;99.90;;;;;;5090819;28;20031;-87
2022/01/09 12:14:44;;;;;;;0.68;0.68;;;3.90;99.90;;;;;;5073354;28;20031;-86
2022/01/09 12:17:34;;;;;;;0.85;0.85;;;3.80;99.90;;;;;;5106641;28;20122;-87
2022/01/09 12:20:07;;;;;;;1.40;1.00;;;3.90;99.90;;;;;;5090476;28;20089;-86
2022/01/09 12:22:51;;;;;;;0.80;0.80;;;3.90;99.90;;;;;;5093960;28;20025;-87
2022/01/09 12:25:26;;;;;;;0.82;0.80;;;3.90;99.90;;;;;;5083028;28;20077;-87
2022/01/09 12:28:02;;;;;;;0.98;0.93;;;3.90;99.90;;;;;;5089522;28;20028;-86
2022/01/09 12:30:36;;;;;;;1.55;1.13;;;3.90;99.90;;;;;;5060741;28;20024;-86
2022/01/09 12:33:07;;;;;;;0.90;0.90;;;3.90;99.90;;;;;;5088023;28;20032;-87
2022/01/09 12:35:35;;;;;;;1.45;0.90;;;3.90;99.90;;;;;;5104290;28;20025;-89
2022/01/09 12:38:14;;;;;;;0.80;0.80;;;3.90;99.90;;;;;;5054692;28;20032;-87
2022/01/09 12:40:41;;;;;;;0.90;0.90;;;3.80;99.90;;;;;;5074690;28;20085;-87
2022/01/09 12:43:08;;;;;;;1.13;0.90;;;3.80;99.90;;;;;;5113015;28;20028;-89
2022/01/09 12:45:41;;;;;;;1.10;1.00;;;3.80;99.90;;;;;;5080644;28;20395;-90
2022/01/09 12:48:40;;;;;;;1.15;0.95;;;3.80;99.90;;;;;;5107091;28;20522;-87
2022/01/09 12:51:15;;;;;;;0.85;0.85;;;3.70;99.90;;;;;;5092748;28;20395;-86
2022/01/09 12:53:48;;;;;;;0.85;0.85;;;3.70;99.90;;;;;;5084234;28;20089;-90
2022/01/09 12:56:19;;;;;;;0.88;0.85;;;3.70;99.90;;;;;;5098674;28;20191;-87
2022/01/09 12:59:07;;;;;;;3.15;0.93;;;3.70;99.90;;;;;;5083047;28;20032;-87
2022/01/09 13:01:39;;;;;;;0.95;0.95;;;3.70;99.90;;;;;;5076092;28;20153;-87
2022/01/09 13:04:33;;;;;;;2.03;0.90;;;3.70;99.90;;;;;;5109846;28;20054;-88
2022/01/09 13:06:59;;;;;;;0.80;0.80;;;3.70;99.90;;;;;;5099119;28;20016;-88
2022/01/09 13:09:32;;;;;;;0.90;0.90;;;3.70;99.90;;;;;;5103805;28;20081;-89